Time;durP1;ratioP1;P1;durP2;ratioP2;P2;SDS_P1;SDS_P2;PMS_P1;PMS_P2;Temp;Humidity;BMP_temperature;BMP_pressure;BME280_temperature;BME280_humidity;BME280_pressure;Samples;Min_cycle;Max_cycle;Signal;HPM_P1;HPM_P2
2021/03/01 00:00:57;;;;;;;6.05;1.80;;;27.00;48.60;;;;;;5064787;28;20063;-71
2021/03/01 00:03:23;;;;;;;9.27;2.28;;;26.90;48.50;;;;;;5050810;28;20021;-71
2021/03/01 00:05:52;;;;;;;6.05;2.22;;;26.90;48.50;;;;;;5045711;28;20032;-71
2021/03/01 00:08:58;;;;;;;7.85;2.08;;;26.90;48.60;;;;;;5044715;28;20503;-71
2021/03/01 00:12:04;;;;;;;6.80;2.28;;;26.90;48.60;;;;;;5049308;28;20032;-71
2021/03/01 00:15:10;;;;;;;5.40;2.28;;;26.80;48.70;;;;;;5048841;28;20108;-71
2021/03/01 00:17:55;;;;;;;6.63;2.08;;;26.80;48.80;;;;;;5050314;28;20120;-72
2021/03/01 00:21:01;;;;;;;8.27;2.73;;;26.70;48.80;;;;;;5049173;28;20075;-72
2021/03/01 00:23:27;;;;;;;6.03;2.20;;;26.70;48.70;;;;;;5051359;28;20112;-71
2021/03/01 00:26:33;;;;;;;4.88;2.13;;;26.70;48.70;;;;;;5047420;28;20104;-70
2021/03/01 00:29:00;;;;;;;8.43;2.85;;;26.70;48.70;;;;;;5040752;28;20488;-74
2021/03/01 00:31:46;;;;;;;5.00;2.63;;;26.60;48.60;;;;;;5046749;28;20067;-74
2021/03/01 00:34:52;;;;;;;6.75;2.72;;;26.60;48.80;;;;;;5045541;28;20029;-74
2021/03/01 00:37:56;;;;;;;6.25;2.03;;;26.60;49.00;;;;;;5049395;28;20065;-74
2021/03/01 00:41:02;;;;;;;5.47;2.20;;;26.60;49.00;;;;;;5066390;28;20037;-75
2021/03/01 00:43:32;;;;;;;4.68;2.60;;;26.60;49.10;;;;;;5048519;28;20099;-74
2021/03/01 00:46:38;;;;;;;4.82;2.85;;;26.50;49.20;;;;;;5042577;28;20021;-74
2021/03/01 00:49:44;;;;;;;5.60;2.45;;;26.50;49.20;;;;;;5047418;28;20018;-75
2021/03/01 00:52:19;;;;;;;;;;;26.50;49.20;;;;;;5050736;28;20021;-75
2021/03/01 00:55:25;;;;;;;15.60;3.37;;;26.50;49.40;;;;;;5056141;28;20489;-73
2021/03/01 00:58:31;;;;;;;4.35;2.13;;;26.50;49.50;;;;;;5047741;28;20029;-74
2021/03/01 01:01:37;;;;;;;4.72;2.15;;;26.50;49.50;;;;;;5037232;28;20025;-74
2021/03/01 01:04:04;;;;;;;;;;;26.40;49.50;;;;;;5046291;28;20119;-75
2021/03/01 01:07:10;;;;;;;10.18;3.13;;;26.40;49.60;;;;;;5043764;28;19919;-74
2021/03/01 01:09:56;;;;;;;;;;;26.40;49.60;;;;;;5049032;28;20021;-74
2021/03/01 01:12:23;;;;;;;4.07;2.42;;;26.40;49.70;;;;;;5043165;28;19911;-73
2021/03/01 01:15:29;;;;;;;6.03;2.97;;;26.40;49.80;;;;;;5042592;28;20021;-72
2021/03/01 01:18:35;;;;;;;4.85;2.45;;;26.40;49.80;;;;;;5048156;28;20417;-71
2021/03/01 01:21:21;;;;;;;;;;;26.40;50.00;;;;;;5049887;28;20495;-71
2021/03/01 01:24:27;;;;;;;5.38;2.20;;;26.30;49.90;;;;;;5043135;28;20359;-71
2021/03/01 01:27:33;;;;;;;2.42;2.15;;;26.30;50.10;;;;;;5047989;28;20103;-74
2021/03/01 01:30:39;;;;;;;7.90;2.25;;;26.30;50.20;;;;;;5056024;28;20033;-72
2021/03/01 01:33:45;;;;;;;5.70;2.40;;;26.20;50.30;;;;;;5048680;28;20032;-71
2021/03/01 01:36:51;;;;;;;6.28;2.30;;;26.30;50.40;;;;;;5047839;28;20021;-73
2021/03/01 01:39:57;;;;;;;3.38;2.33;;;26.20;50.40;;;;;;5047866;28;20124;-71
2021/03/01 01:42:24;;;;;;;8.65;2.30;;;26.20;50.60;;;;;;5043754;28;20016;-75
2021/03/01 01:44:50;;;;;;;9.65;2.28;;;26.20;50.70;;;;;;5053332;28;20024;-72
2021/03/01 01:47:56;;;;;;;7.88;2.65;;;26.10;50.70;;;;;;5048793;28;20024;-73
2021/03/01 01:50:42;;;;;;;;;;;26.10;50.80;;;;;;5047709;28;20544;-75
2021/03/01 01:53:09;;;;;;;5.57;3.20;;;26.10;50.80;;;;;;5046134;28;19909;-77
2021/03/01 01:56:15;;;;;;;11.18;9.77;;;26.10;50.90;;;;;;5048340;28;20068;-72
2021/03/01 01:59:01;;;;;;;;;;;26.10;50.90;;;;;;5042426;28;20076;-74
2021/03/01 02:01:45;;;;;;;10.32;6.90;;;26.10;51.00;;;;;;5050125;28;19908;-74
2021/03/01 02:04:37;;;;;;;7.47;4.00;;;26.00;51.00;;;;;;5046710;28;20449;-72
2021/03/01 02:07:52;;;;;;;7.07;3.78;;;26.00;51.00;;;;;;5044539;28;20029;-73
2021/03/01 02:11:04;;;;;;;8.52;3.72;;;26.00;51.10;;;;;;5048287;28;20096;-71
2021/03/01 02:13:37;;;;;;;6.95;2.55;;;25.90;51.10;;;;;;5044737;28;20558;-72
2021/03/01 02:16:36;;;;;;;6.80;2.63;;;25.90;51.20;;;;;;5043179;28;20021;-73
2021/03/01 02:19:42;;;;;;;9.02;2.33;;;25.90;51.30;;;;;;5042037;28;20043;-73
2021/03/01 02:22:26;;;;;;;;;;;25.90;51.40;;;;;;5048246;28;20025;-74
2021/03/01 02:25:32;;;;;;;7.53;2.92;;;25.90;51.50;;;;;;5048932;28;20021;-72
2021/03/01 02:28:21;;;;;;;;;;;25.90;51.50;;;;;;5047713;28;20037;-72
2021/03/01 02:31:27;;;;;;;4.78;2.10;;;25.90;51.50;;;;;;5036410;28;20368;-71
2021/03/01 02:34:13;;;;;;;;;;;25.90;51.60;;;;;;5047048;28;20018;-71
2021/03/01 02:37:19;;;;;;;4.68;1.95;;;25.90;51.70;;;;;;5046875;28;19984;-72
2021/03/01 02:40:05;;;;;;;;;;;25.90;51.70;;;;;;5041018;28;20033;-72
2021/03/01 02:43:11;;;;;;;8.20;2.13;;;25.80;51.60;;;;;;5043220;28;19909;-72
2021/03/01 02:46:17;;;;;;;4.10;2.40;;;25.80;51.60;;;;;;5042298;28;20029;-71
2021/03/01 02:49:03;;;;;;;;;;;25.80;51.70;;;;;;5043978;28;20031;-72
2021/03/01 02:52:09;;;;;;;5.40;2.38;;;25.70;51.70;;;;;;5047030;28;19993;-72
2021/03/01 02:55:15;;;;;;;7.40;2.63;;;25.80;51.80;;;;;;5039541;28;20142;-71
2021/03/01 02:58:01;;;;;;;;;;;25.70;51.80;;;;;;5046131;28;20082;-72
2021/03/01 03:00:28;;;;;;;4.07;2.88;;;25.70;51.80;;;;;;5045379;28;19936;-74
2021/03/01 03:03:34;;;;;;;5.30;2.10;;;25.70;51.90;;;;;;5048893;28;20033;-71
2021/03/01 03:06:00;;;;;;;;;;;25.70;51.90;;;;;;5048643;28;20120;-71
2021/03/01 03:09:05;;;;;;;5.55;3.00;;;25.60;52.00;;;;;;5040926;28;19904;-72
2021/03/01 03:12:11;;;;;;;3.55;2.63;;;25.60;52.00;;;;;;5049922;28;21339;-72
2021/03/01 03:14:38;;;;;;;;;;;25.60;52.00;;;;;;5049267;28;20504;-72
2021/03/01 03:17:44;;;;;;;5.03;2.95;;;25.60;52.10;;;;;;5043526;28;19909;-72
2021/03/01 03:20:30;;;;;;;;;;;25.60;52.20;;;;;;5048762;28;20104;-71
2021/03/01 03:22:57;;;;;;;3.17;1.95;;;25.60;52.20;;;;;;5049103;28;20303;-71
2021/03/01 03:26:03;;;;;;;2.90;2.13;;;25.60;52.20;;;;;;5047939;28;20063;-72
2021/03/01 03:28:29;;;;;;;;;;;25.50;52.20;;;;;;5055429;28;20021;-71
2021/03/01 03:30:55;;;;;;;3.90;2.30;;;25.50;52.30;;;;;;5049958;28;20355;-71
2021/03/01 03:33:22;;;;;;;3.85;2.45;;;25.50;52.30;;;;;;5052380;28;20024;-73
2021/03/01 03:35:49;;;;;;;6.50;2.88;;;25.50;52.40;;;;;;5051639;28;20086;-73
2021/03/01 03:38:38;;;;;;;4.68;2.80;;;25.50;52.50;;;;;;5048339;28;20087;-73
2021/03/01 03:41:44;;;;;;;6.45;2.45;;;25.40;52.60;;;;;;5042939;28;20029;-72
2021/03/01 03:44:30;;;;;;;;;;;25.40;52.60;;;;;;5051693;28;20029;-73
2021/03/01 03:47:36;;;;;;;4.30;2.50;;;25.40;52.70;;;;;;5050432;28;20419;-72
2021/03/01 03:50:22;;;;;;;;;;;25.40;52.70;;;;;;5052599;28;20499;-71
2021/03/01 03:52:53;;;;;;;4.30;2.63;;;25.40;52.70;;;;;;5045862;28;19912;-74
2021/03/01 03:55:59;;;;;;;4.43;2.58;;;25.40;52.70;;;;;;5050160;28;20040;-71
2021/03/01 03:58:46;;;;;;;;;;;25.40;52.70;;;;;;5053049;28;20036;-71
2021/03/01 04:01:55;;;;;;;2.80;2.22;;;25.30;52.70;;;;;;5050300;28;20339;-71
2021/03/01 04:04:24;;;;;;;3.47;2.38;;;25.30;52.70;;;;;;5051034;28;20048;-76
2021/03/01 04:07:30;;;;;;;5.30;2.85;;;25.30;52.80;;;;;;5050658;28;20021;-79
2021/03/01 04:10:36;;;;;;;4.43;2.83;;;25.30;52.70;;;;;;5049878;28;20017;-77
2021/03/01 04:13:43;;;;;;;10.70;4.97;;;25.30;52.80;;;;;;5051098;28;20107;-74
2021/03/01 04:16:28;;;;;;;;;;;25.20;52.80;;;;;;5046654;28;20033;-76
2021/03/01 04:19:34;;;;;;;5.65;4.40;;;25.20;52.80;;;;;;5051348;28;19924;-75
2021/03/01 04:22:20;;;;;;;;;;;25.20;52.70;;;;;;5044861;28;20064;-75
2021/03/01 04:25:26;;;;;;;4.15;2.80;;;25.10;52.80;;;;;;5047240;28;19952;-78
2021/03/01 04:28:12;;;;;;;;;;;25.10;52.80;;;;;;5047725;28;20033;-73
2021/03/01 04:31:24;;;;;;;6.40;2.55;;;25.10;52.80;;;;;;5045698;28;19915;-74
2021/03/01 04:34:30;;;;;;;6.88;2.28;;;25.10;52.80;;;;;;5049092;28;20029;-73
2021/03/01 04:37:16;;;;;;;;;;;25.10;52.80;;;;;;5051164;28;20107;-75
2021/03/01 04:39:42;;;;;;;;;;;25.00;52.80;;;;;;5043444;28;19925;-74
2021/03/01 04:42:10;;;;;;;11.40;9.95;;;25.00;52.80;;;;;;5050506;28;19992;-70
2021/03/01 04:44:37;;;;;;;11.65;10.27;;;25.00;52.70;;;;;;5045547;28;20017;-76
2021/03/01 04:47:46;;;;;;;9.35;7.22;;;25.00;52.70;;;;;;5051067;28;20526;-70
2021/03/01 04:50:52;;;;;;;7.72;4.72;;;24.90;52.70;;;;;;5051274;28;20155;-78
2021/03/01 04:53:39;;;;;;;;;;;24.90;52.70;;;;;;5051669;28;20017;-77
2021/03/01 04:56:08;;;;;;;5.45;3.53;;;24.90;52.70;;;;;;5048223;28;19927;-75
2021/03/01 04:58:40;;;;;;;4.05;3.00;;;24.90;52.70;;;;;;5051884;28;20037;-72
2021/03/01 05:01:47;;;;;;;3.95;2.58;;;24.90;52.70;;;;;;5047813;28;20463;-75
2021/03/01 05:04:53;;;;;;;3.42;2.45;;;24.90;52.70;;;;;;5067037;28;20116;-73
2021/03/01 05:07:39;;;;;;;;;;;24.90;52.80;;;;;;5052248;28;20522;-71
2021/03/01 05:10:45;;;;;;;7.18;2.42;;;24.80;52.70;;;;;;5047476;28;20011;-75
2021/03/01 05:13:12;;;;;;;4.97;2.08;;;24.80;52.80;;;;;;5049031;28;20025;-72
2021/03/01 05:16:18;;;;;;;4.15;2.63;;;24.80;52.90;;;;;;5046773;28;20503;-72
2021/03/01 05:19:04;;;;;;;;;;;24.80;52.90;;;;;;5050119;28;20502;-76
2021/03/01 05:22:11;;;;;;;2.60;2.00;;;24.80;53.00;;;;;;5050394;28;20346;-74
2021/03/01 05:24:56;;;;;;;;;;;24.80;53.00;;;;;;5047954;28;20480;-72
2021/03/01 05:28:03;;;;;;;3.70;2.65;;;24.80;53.00;;;;;;5050042;28;19992;-75
2021/03/01 05:31:10;;;;;;;3.60;2.22;;;24.80;53.00;;;;;;5045901;28;20547;-75
2021/03/01 05:33:56;;;;;;;;;;;24.70;53.10;;;;;;5050480;28;20025;-75
2021/03/01 05:36:24;;;;;;;4.78;2.35;;;24.70;53.20;;;;;;5046803;28;19933;-75
2021/03/01 05:39:30;;;;;;;4.45;2.00;;;24.70;53.10;;;;;;5049656;28;20151;-75
2021/03/01 05:42:16;;;;;;;;;;;24.70;53.10;;;;;;5048325;28;20056;-74
2021/03/01 05:45:22;;;;;;;4.80;2.05;;;24.70;53.20;;;;;;5043945;28;20360;-75
2021/03/01 05:48:29;;;;;;;2.30;1.75;;;24.70;53.10;;;;;;5048443;28;20020;-75
2021/03/01 05:51:35;;;;;;;2.65;2.45;;;24.70;53.20;;;;;;5065467;28;20502;-75
2021/03/01 05:54:42;;;;;;;4.45;2.38;;;24.60;53.30;;;;;;5039346;28;20493;-74
2021/03/01 05:57:48;;;;;;;6.68;2.50;;;24.60;53.20;;;;;;5046705;28;20045;-75
2021/03/01 06:00:15;;;;;;;3.67;1.88;;;24.60;53.30;;;;;;5048479;28;20060;-74
2021/03/01 06:03:21;;;;;;;3.17;1.77;;;24.60;53.30;;;;;;5045026;28;20021;-75
2021/03/01 06:06:28;;;;;;;5.53;1.80;;;24.60;53.30;;;;;;5040640;28;20044;-74
2021/03/01 06:09:13;;;;;;;;;;;24.60;53.40;;;;;;5049356;28;20025;-72
2021/03/01 06:11:40;;;;;;;2.83;1.67;;;24.60;53.40;;;;;;5043841;28;20303;-73
2021/03/01 06:14:46;;;;;;;4.50;1.92;;;24.60;53.40;;;;;;5046739;28;20037;-74
2021/03/01 06:17:35;;;;;;;;;;;24.60;53.40;;;;;;5046101;28;20500;-75
2021/03/01 06:20:10;;;;;;;3.55;2.30;;;24.60;53.40;;;;;;5049553;28;19947;-72
2021/03/01 06:23:19;;;;;;;6.70;1.95;;;24.60;53.50;;;;;;5045415;28;20381;-72
2021/03/01 06:26:24;;;;;;;3.05;1.70;;;24.60;53.50;;;;;;5043727;28;20123;-75
2021/03/01 06:29:30;;;;;;;1.45;1.35;;;24.60;53.50;;;;;;5044156;28;20056;-72
2021/03/01 06:31:57;;;;;;;1.80;1.55;;;24.60;53.50;;;;;;5044164;28;20055;-75
2021/03/01 06:34:49;;;;;;;5.50;2.08;;;24.60;53.50;;;;;;5053097;28;20082;-73
2021/03/01 06:37:53;;;;;;;2.92;2.20;;;24.60;53.60;;;;;;5047191;28;20022;-74
2021/03/01 06:41:00;;;;;;;3.08;2.00;;;24.70;53.70;;;;;;5041979;28;20488;-75
2021/03/01 06:43:26;;;;;;;6.60;1.98;;;24.70;53.70;;;;;;5049487;28;20025;-72
2021/03/01 06:46:33;;;;;;;5.22;2.58;;;24.70;54.20;;;;;;5045692;28;20025;-74
2021/03/01 06:49:52;;;;;;;3.80;1.83;;;24.80;53.50;;;;;;5040691;28;20037;-72
2021/03/01 06:52:51;;;;;;;2.83;1.90;;;24.70;53.30;;;;;;5048642;28;20032;-72
2021/03/01 06:55:58;;;;;;;6.55;2.17;;;24.80;53.20;;;;;;5016730;28;20049;-74
2021/03/01 06:59:05;;;;;;;2.95;1.85;;;24.80;53.00;;;;;;5036663;28;20048;-75
2021/03/01 07:02:11;;;;;;;2.10;1.42;;;24.80;52.80;;;;;;5047440;28;20442;-74
2021/03/01 07:04:57;;;;;;;;;;;24.80;52.70;;;;;;5054020;28;20030;-73
2021/03/01 07:08:03;;;;;;;1.25;1.15;;;24.80;52.30;;;;;;5051884;28;19912;-75
2021/03/01 07:10:36;;;;;;;0.88;0.88;;;24.80;52.00;;;;;;5050803;28;20016;-73
2021/03/01 07:13:45;;;;;;;0.63;0.63;;;24.80;51.90;;;;;;5054090;28;20025;-72
2021/03/01 07:16:36;;;;;;;0.80;0.70;;;24.80;51.70;;;;;;5045947;28;20029;-75
2021/03/01 07:19:06;;;;;;;0.80;0.80;;;24.80;51.30;;;;;;5048457;28;20029;-73
2021/03/01 07:22:14;;;;;;;2.60;1.08;;;24.80;51.20;;;;;;5049499;28;20368;-74
2021/03/01 07:25:21;;;;;;;1.60;1.42;;;24.80;51.10;;;;;;5044401;28;20060;-73
2021/03/01 07:28:27;;;;;;;2.70;1.00;;;24.80;50.90;;;;;;5045670;28;20017;-75
2021/03/01 07:31:33;;;;;;;0.90;0.90;;;24.80;50.70;;;;;;5051308;28;20032;-72
2021/03/01 07:34:19;;;;;;;;;;;24.80;50.60;;;;;;5048436;28;20021;-72
2021/03/01 07:37:26;;;;;;;1.00;1.00;;;24.80;50.50;;;;;;5052021;28;19954;-75
2021/03/01 07:40:32;;;;;;;1.00;1.00;;;24.80;50.60;;;;;;5050888;28;20032;-72
2021/03/01 07:43:00;;;;;;;0.80;0.80;;;24.80;50.50;;;;;;5047800;28;22006;-72
2021/03/01 07:46:06;;;;;;;0.70;0.70;;;24.80;50.50;;;;;;5047521;28;20376;-75
2021/03/01 07:49:19;;;;;;;0.85;0.85;;;24.80;50.50;;;;;;5051441;28;20040;-74
2021/03/01 07:52:22;;;;;;;0.80;0.75;;;24.80;50.50;;;;;;5044972;28;20067;-72
2021/03/01 07:55:31;;;;;;;1.10;0.88;;;24.80;50.60;;;;;;5058448;28;20033;-74
2021/03/01 07:58:41;;;;;;;1.00;1.00;;;24.90;50.60;;;;;;5047344;28;20087;-73
2021/03/01 08:01:53;;;;;;;2.33;1.13;;;24.90;50.60;;;;;;5047665;28;20068;-72
2021/03/01 08:05:11;;;;;;;1.30;1.20;;;24.90;50.70;;;;;;5051907;28;20025;-72
2021/03/01 08:08:23;;;;;;;3.63;1.10;;;24.90;50.70;;;;;;5050700;28;20025;-72
2021/03/01 08:11:30;;;;;;;1.50;1.20;;;25.00;50.90;;;;;;5044138;28;20017;-72
2021/03/01 08:14:36;;;;;;;1.20;1.10;;;25.00;51.00;;;;;;5051308;28;20048;-73
2021/03/01 08:17:31;;;;;;;3.45;1.58;;;25.10;51.10;;;;;;5016136;28;20448;-72
2021/03/01 08:20:16;;;;;;;3.00;1.42;;;25.10;50.90;;;;;;5044567;28;20029;-72
2021/03/01 08:23:05;;;;;;;2.80;1.10;;;25.20;50.90;;;;;;5051600;28;20033;-72
2021/03/01 08:25:48;;;;;;;2.40;1.33;;;25.30;50.80;;;;;;5048520;28;20506;-72
2021/03/01 08:28:18;;;;;;;1.25;1.00;;;25.30;50.70;;;;;;5046850;28;20083;-72
2021/03/01 08:31:04;;;;;;;1.27;1.10;;;25.40;50.60;;;;;;5048245;28;20025;-71
2021/03/01 08:34:10;;;;;;;2.53;1.50;;;25.40;50.60;;;;;;5049912;28;20044;-72
2021/03/01 08:36:56;;;;;;;;;;;25.50;50.50;;;;;;5047649;28;20036;-72
2021/03/01 08:40:10;;;;;;;2.80;1.35;;;25.60;50.60;;;;;;5046580;28;20307;-72
2021/03/01 08:42:51;;;;;;;2.53;1.17;;;25.60;50.50;;;;;;5044869;28;20106;-72
2021/03/01 08:46:03;;;;;;;1.67;1.52;;;25.70;50.50;;;;;;5046368;28;20029;-73
2021/03/01 08:49:09;;;;;;;1.77;1.40;;;25.70;50.50;;;;;;5050809;28;20453;-72
2021/03/01 08:51:55;;;;;;;;;;;25.80;50.40;;;;;;5048245;28;20467;-72
2021/03/01 08:55:07;;;;;;;4.18;1.40;;;25.80;50.30;;;;;;5049584;28;20352;-73
2021/03/01 08:57:54;;;;;;;5.03;1.90;;;25.90;50.20;;;;;;5048632;28;20037;-75
2021/03/01 09:00:53;;;;;;;2.08;1.63;;;26.00;50.10;;;;;;5049798;28;20032;-72
2021/03/01 09:03:26;;;;;;;4.82;1.55;;;26.10;50.00;;;;;;5048332;28;20082;-72
2021/03/01 09:06:07;;;;;;;4.80;1.60;;;26.10;49.90;;;;;;5050213;28;20033;-76
2021/03/01 09:09:20;;;;;;;4.00;1.50;;;26.20;49.90;;;;;;5048149;28;20481;-74
2021/03/01 09:12:26;;;;;;;1.98;1.48;;;26.20;49.80;;;;;;5047275;28;20033;-73
2021/03/01 09:15:33;;;;;;;3.83;1.90;;;26.30;49.80;;;;;;5051259;28;20370;-72
2021/03/01 09:18:39;;;;;;;1.85;1.50;;;26.30;49.70;;;;;;5050518;28;20076;-73
2021/03/01 09:21:46;;;;;;;3.67;1.70;;;26.40;49.60;;;;;;5049718;28;20025;-73
2021/03/01 09:24:22;;;;;;;6.82;1.75;;;26.50;49.30;;;;;;5046304;28;20021;-75
2021/03/01 09:27:29;;;;;;;1.88;1.67;;;26.50;49.10;;;;;;5050700;28;20112;-72
2021/03/01 09:30:35;;;;;;;2.22;1.42;;;26.60;48.90;;;;;;5038578;28;20083;-73
2021/03/01 09:33:09;;;;;;;6.57;1.70;;;26.70;48.50;;;;;;5048786;28;20438;-76
2021/03/01 09:36:15;;;;;;;4.40;3.35;;;26.90;48.30;;;;;;5051519;28;20543;-73
2021/03/01 09:39:02;;;;;;;2.85;1.52;;;26.90;47.90;;;;;;5064883;28;20044;-72
2021/03/01 09:42:15;;;;;;;4.88;1.80;;;27.00;47.80;;;;;;5046638;28;20029;-75
2021/03/01 09:45:21;;;;;;;3.97;1.48;;;27.10;47.40;;;;;;5050322;28;20121;-74
2021/03/01 09:48:31;;;;;;;2.45;1.55;;;27.20;47.30;;;;;;5045121;28;20122;-72
2021/03/01 09:51:16;;;;;;;5.65;1.90;;;27.30;46.80;;;;;;5049708;28;20017;-75
2021/03/01 09:53:44;;;;;;;6.82;2.30;;;27.40;46.50;;;;;;5071893;28;20021;-74
2021/03/01 09:56:39;;;;;;;4.93;2.28;;;27.50;46.30;;;;;;5047312;28;20080;-72
2021/03/01 09:59:06;;;;;;;11.27;2.60;;;27.70;46.30;;;;;;5047065;28;20153;-72
2021/03/01 10:02:14;;;;;;;9.07;2.30;;;27.80;46.00;;;;;;5042658;28;20037;-72
2021/03/01 10:05:29;;;;;;;5.25;2.33;;;27.90;45.70;;;;;;5052450;28;20017;-75
2021/03/01 10:08:44;;;;;;;5.63;2.40;;;28.00;45.30;;;;;;5044622;28;20037;-74
2021/03/01 10:11:59;;;;;;;4.70;1.70;;;28.10;44.60;;;;;;5047038;28;20029;-73
2021/03/01 10:15:06;;;;;;;5.07;2.00;;;28.20;44.70;;;;;;5043673;28;20490;-74
2021/03/01 10:18:08;;;;;;;15.25;2.83;;;28.30;45.00;;;;;;5038333;28;20776;-73
2021/03/01 10:20:55;;;;;;;5.55;1.83;;;28.30;45.60;;;;;;5045124;28;20025;-72
2021/03/01 10:24:22;;;;;;;5.10;1.65;;;28.20;45.70;;;;;;5044805;28;20060;-75
2021/03/01 10:27:34;;;;;;;5.88;1.90;;;28.10;45.90;;;;;;5047256;28;20075;-72
2021/03/01 10:30:40;;;;;;;4.50;1.95;;;28.00;46.00;;;;;;5044409;28;20025;-71
2021/03/01 10:33:46;;;;;;;3.80;1.75;;;27.90;46.20;;;;;;5046203;28;20447;-75
2021/03/01 10:36:55;;;;;;;5.68;1.52;;;27.80;46.30;;;;;;5041402;28;20037;-72
2021/03/01 10:39:59;;;;;;;6.70;1.70;;;27.80;46.20;;;;;;5048295;28;20345;-74
2021/03/01 10:43:06;;;;;;;6.05;1.70;;;27.80;46.20;;;;;;5047501;28;20442;-74
2021/03/01 10:46:18;;;;;;;3.53;1.50;;;27.70;46.20;;;;;;5045353;28;20052;-72
2021/03/01 10:49:33;;;;;;;4.68;1.75;;;27.60;46.30;;;;;;5046213;28;20496;-72
2021/03/01 10:52:20;;;;;;;3.63;1.70;;;27.60;46.40;;;;;;5048504;28;20025;-74
2021/03/01 10:55:27;;;;;;;4.88;2.20;;;27.50;46.60;;;;;;5041685;28;20083;-72
2021/03/01 10:58:34;;;;;;;8.25;1.92;;;27.30;46.80;;;;;;5048991;28;20037;-75
2021/03/01 11:01:01;;;;;;;9.40;1.98;;;27.30;47.40;;;;;;5046635;28;20033;-72
2021/03/01 11:04:07;;;;;;;10.02;3.47;;;27.20;48.40;;;;;;5048526;28;20013;-75
2021/03/01 11:07:13;;;;;;;4.07;1.55;;;27.10;49.30;;;;;;5042197;28;20033;-72
2021/03/01 11:10:19;;;;;;;2.00;1.60;;;27.00;49.70;;;;;;5045109;28;20543;-74
2021/03/01 11:12:48;;;;;;;1.88;1.60;;;26.90;49.60;;;;;;5042185;28;20111;-73
2021/03/01 11:15:16;;;;;;;1.52;1.42;;;26.90;49.50;;;;;;5047661;28;20411;-75
2021/03/01 11:18:22;;;;;;;3.08;1.45;;;26.80;49.50;;;;;;5045844;28;20025;-72
2021/03/01 11:20:49;;;;;;;1.95;1.40;;;26.80;49.40;;;;;;5041908;28;20568;-74
2021/03/01 11:23:15;;;;;;;1.88;1.40;;;26.80;49.50;;;;;;5046177;28;20045;-75
2021/03/01 11:25:42;;;;;;;2.88;1.40;;;26.80;49.50;;;;;;5046700;28;20100;-72
2021/03/01 11:28:48;;;;;;;3.25;1.45;;;26.80;49.40;;;;;;5047012;28;20651;-75
2021/03/01 11:31:54;;;;;;;2.33;1.30;;;26.80;49.30;;;;;;5044335;28;20053;-72
2021/03/01 11:35:01;;;;;;;1.90;1.23;;;26.80;49.20;;;;;;5047955;28;20096;-75
2021/03/01 11:37:56;;;;;;;6.07;1.45;;;26.80;49.00;;;;;;5044279;28;20033;-73
2021/03/01 11:41:03;;;;;;;2.05;1.60;;;26.80;49.00;;;;;;5046349;28;20369;-74
2021/03/01 11:44:09;;;;;;;2.42;1.60;;;26.80;48.90;;;;;;5048193;28;20075;-75
2021/03/01 11:47:16;;;;;;;2.20;1.73;;;26.80;48.70;;;;;;5048020;28;20372;-73
2021/03/01 11:50:27;;;;;;;2.72;1.25;;;26.90;48.60;;;;;;5043801;28;20013;-73
2021/03/01 11:53:34;;;;;;;3.88;1.55;;;26.90;48.40;;;;;;5041831;28;20030;-74
2021/03/01 11:56:41;;;;;;;3.22;1.58;;;26.90;48.10;;;;;;5047802;28;20566;-73
2021/03/01 11:59:47;;;;;;;5.07;1.50;;;26.90;48.20;;;;;;5046480;28;20033;-72
2021/03/01 12:02:22;;;;;;;3.00;1.20;;;26.90;48.00;;;;;;5049468;28;20063;-72
2021/03/01 12:05:28;;;;;;;3.90;1.75;;;27.00;48.10;;;;;;5044060;28;20040;-72
2021/03/01 12:08:34;;;;;;;4.70;1.80;;;27.00;48.00;;;;;;5049140;28;20024;-72
2021/03/01 12:11:40;;;;;;;4.07;1.58;;;27.00;47.90;;;;;;5048483;28;20029;-72
2021/03/01 12:14:07;;;;;;;3.25;2.05;;;27.10;47.50;;;;;;5046845;28;20091;-75
2021/03/01 12:16:33;;;;;;;7.22;1.67;;;27.20;47.30;;;;;;5049420;28;20423;-72
2021/03/01 12:19:40;;;;;;;7.13;2.47;;;27.20;46.90;;;;;;5045163;28;20037;-75
2021/03/01 12:22:25;;;;;;;14.70;3.35;;;27.20;46.50;;;;;;5049833;28;20021;-72
2021/03/01 12:24:52;;;;;;;20.85;3.05;;;27.30;46.30;;;;;;5051976;28;20114;-73
2021/03/01 12:27:58;;;;;;;17.05;2.95;;;27.40;46.10;;;;;;5050883;28;20025;-72
2021/03/01 12:31:04;;;;;;;12.63;1.92;;;27.40;46.60;;;;;;5049495;28;20110;-73
2021/03/01 12:34:10;;;;;;;17.13;2.55;;;27.50;46.00;;;;;;5046339;28;20036;-72
2021/03/01 12:36:38;;;;;;;16.90;2.50;;;27.50;45.50;;;;;;5049461;28;20025;-75
2021/03/01 12:46:27;;;;;;;7.80;2.13;;;27.40;46.30;;;;;;5041987;28;20090;-72
2021/03/01 12:49:45;;;;;;;10.07;2.20;;;27.30;46.70;;;;;;5045056;28;20052;-73
2021/03/01 12:59:54;;;;;;;3.95;1.40;;;26.90;48.40;;;;;;4988738;28;20081;-75
2021/03/01 13:03:31;;;;;;;2.38;2.17;;;26.80;48.80;;;;;;4970057;28;20061;-74
2021/03/01 13:06:57;;;;;;;2.28;1.15;;;26.70;49.00;;;;;;4927256;29;20100;-75
2021/03/01 13:10:03;;;;;;;2.20;1.25;;;26.60;49.40;;;;;;4967905;28;20113;-75
2021/03/01 13:36:04;;;;;;;1.23;0.60;;;26.30;54.30;;;;;;5042728;28;20040;-73
2021/03/01 14:19:20;;;;;;;7.45;3.33;;;27.40;55.80;;;;;;5040434;28;20148;-77
2021/03/01 14:21:46;;;;;;;15.65;2.92;;;27.60;55.20;;;;;;5030889;28;20032;-77
2021/03/01 14:24:52;;;;;;;2.30;2.10;;;27.80;54.90;;;;;;5049023;28;20056;-75
2021/03/01 14:27:20;;;;;;;10.68;2.60;;;28.00;54.50;;;;;;5042674;28;20025;-81
2021/03/01 14:30:26;;;;;;;7.20;2.80;;;28.20;54.10;;;;;;5046463;28;20044;-77
2021/03/01 14:32:53;;;;;;;2.80;1.60;;;28.30;53.40;;;;;;5030274;28;20511;-77
2021/03/01 14:35:59;;;;;;;4.95;1.92;;;28.40;52.70;;;;;;5042668;28;20021;-76
2021/03/01 14:38:25;;;;;;;2.92;1.40;;;28.50;52.00;;;;;;5048247;28;20116;-74
2021/03/01 14:41:31;;;;;;;3.72;1.80;;;28.60;51.40;;;;;;5047040;28;20021;-78
2021/03/01 14:44:37;;;;;;;4.40;1.60;;;28.60;51.20;;;;;;5047960;28;20025;-73
2021/03/01 14:47:28;;;;;;;4.57;1.88;;;28.70;51.20;;;;;;5049189;28;20629;-75
2021/03/01 14:50:34;;;;;;;3.22;1.52;;;28.90;51.50;;;;;;5025619;28;20772;-74
2021/03/01 14:53:01;;;;;;;7.47;1.73;;;28.90;51.20;;;;;;5045301;28;20103;-76
2021/03/01 14:56:10;;;;;;;2.40;1.67;;;28.90;51.20;;;;;;5045806;28;20037;-76
2021/03/01 15:02:22;;;;;;;6.95;1.90;;;28.90;49.80;;;;;;5049374;28;20035;-78
2021/03/01 15:04:51;;;;;;;8.60;1.67;;;28.90;49.20;;;;;;5032766;28;20036;-74
2021/03/01 15:07:18;;;;;;;5.85;2.10;;;28.80;48.90;;;;;;5044073;28;20032;-84
2021/03/01 15:09:45;;;;;;;7.63;1.90;;;28.70;49.00;;;;;;5046909;28;20021;-80
2021/03/01 15:12:20;;;;;;;2.70;1.40;;;28.80;49.10;;;;;;5046470;28;20086;-73
2021/03/01 15:15:07;;;;;;;4.57;1.30;;;28.70;49.00;;;;;;5026358;28;20180;-85
2021/03/01 15:18:13;;;;;;;9.77;8.23;;;28.80;48.90;;;;;;5048982;28;20092;-82
2021/03/01 15:21:19;;;;;;;5.03;2.97;;;28.80;48.60;;;;;;5048211;28;20029;-72
2021/03/01 15:23:46;;;;;;;5.43;3.10;;;28.80;48.20;;;;;;5049623;28;20036;-74
2021/03/01 15:26:52;;;;;;;2.38;1.15;;;28.80;48.40;;;;;;5051243;28;20021;-78
2021/03/01 15:29:21;;;;;;;1.42;1.25;;;28.70;47.40;;;;;;5050213;28;20013;-75
2021/03/01 15:31:48;;;;;;;3.58;1.77;;;28.70;47.30;;;;;;5029737;28;20415;-74
2021/03/01 15:34:14;;;;;;;1.58;1.10;;;28.70;47.50;;;;;;5050458;28;20021;-74
2021/03/01 15:37:21;;;;;;;1.92;0.80;;;28.70;47.50;;;;;;5049497;28;20025;-79
2021/03/01 15:40:27;;;;;;;2.58;1.30;;;28.60;47.40;;;;;;5048244;28;20040;-81
2021/03/01 15:42:53;;;;;;;3.35;2.45;;;28.60;47.60;;;;;;5049608;28;20761;-73
2021/03/01 15:45:59;;;;;;;3.47;0.85;;;28.60;47.70;;;;;;5047961;28;20051;-73
2021/03/01 15:48:26;;;;;;;4.00;1.08;;;28.60;47.70;;;;;;5049751;28;20461;-78
2021/03/01 15:51:32;;;;;;;3.47;1.52;;;28.70;47.70;;;;;;5049355;28;20108;-75
2021/03/01 15:54:38;;;;;;;1.58;0.77;;;28.50;47.60;;;;;;5049722;28;20028;-78
2021/03/01 15:57:05;;;;;;;2.40;0.75;;;28.50;47.80;;;;;;5040117;28;20018;-72
2021/03/01 16:00:11;;;;;;;2.10;0.98;;;28.40;47.90;;;;;;5045373;28;20036;-83
2021/03/01 16:02:38;;;;;;;1.88;1.00;;;28.40;48.00;;;;;;5046233;28;20123;-75
2021/03/01 16:05:44;;;;;;;8.07;1.02;;;28.30;47.80;;;;;;5044142;28;20092;-76
2021/03/01 16:08:50;;;;;;;1.58;0.90;;;28.20;47.80;;;;;;5048195;28;20025;-76
2021/03/01 16:11:56;;;;;;;4.20;1.45;;;28.10;47.70;;;;;;5045715;28;20032;-72
2021/03/01 16:15:02;;;;;;;3.15;1.02;;;28.00;47.80;;;;;;5046109;28;20025;-71
2021/03/01 16:18:05;;;;;;;1.20;0.90;;;27.90;47.70;;;;;;5047659;28;20060;-71
2021/03/01 16:21:12;;;;;;;3.90;1.20;;;27.90;48.50;;;;;;5030442;28;20057;-72
2021/03/01 16:24:18;;;;;;;1.60;0.77;;;27.90;47.90;;;;;;5047982;28;20024;-72
2021/03/01 16:27:24;;;;;;;5.25;1.05;;;27.90;48.00;;;;;;5048666;28;20067;-72
2021/03/01 16:30:30;;;;;;;1.40;0.98;;;27.90;48.10;;;;;;5050278;28;20048;-72
2021/03/01 16:33:36;;;;;;;1.85;1.05;;;27.90;48.20;;;;;;5046922;28;20021;-74
2021/03/01 16:36:03;;;;;;;1.52;0.88;;;27.80;48.30;;;;;;5042709;28;20029;-72
2021/03/01 16:38:29;;;;;;;3.15;1.35;;;27.90;48.30;;;;;;5047060;28;20033;-72